sensor_id;sensor_type;location;lat;lon;timestamp;P1;durP1;ratioP1;P2;durP2;ratioP2
15655;SDS011;7928;43.614;1.456;2023-04-03T00:00:33;6.13;;;2.13;;
15655;SDS011;7928;43.614;1.456;2023-04-03T00:03:00;5.40;;;2.07;;
15655;SDS011;7928;43.614;1.456;2023-04-03T00:05:27;3.97;;;1.80;;
15655;SDS011;7928;43.614;1.456;2023-04-03T00:07:54;4.67;;;2.57;;
15655;SDS011;7928;43.614;1.456;2023-04-03T00:10:21;4.20;;;1.83;;
15655;SDS011;7928;43.614;1.456;2023-04-03T00:12:50;3.00;;;2.23;;
15655;SDS011;7928;43.614;1.456;2023-04-03T00:15:17;6.23;;;1.90;;
15655;SDS011;7928;43.614;1.456;2023-04-03T00:17:44;4.30;;;2.37;;
15655;SDS011;7928;43.614;1.456;2023-04-03T00:20:11;7.00;;;2.63;;
15655;SDS011;7928;43.614;1.456;2023-04-03T00:22:38;3.63;;;1.90;;
15655;SDS011;7928;43.614;1.456;2023-04-03T00:25:05;2.90;;;2.27;;
15655;SDS011;7928;43.614;1.456;2023-04-03T00:27:33;7.30;;;2.30;;
15655;SDS011;7928;43.614;1.456;2023-04-03T00:30:03;4.93;;;1.93;;
15655;SDS011;7928;43.614;1.456;2023-04-03T00:32:31;3.30;;;2.20;;
15655;SDS011;7928;43.614;1.456;2023-04-03T00:34:58;4.70;;;1.80;;
15655;SDS011;7928;43.614;1.456;2023-04-03T00:37:25;3.77;;;1.93;;
15655;SDS011;7928;43.614;1.456;2023-04-03T00:39:52;5.67;;;2.53;;
15655;SDS011;7928;43.614;1.456;2023-04-03T00:42:19;5.83;;;2.17;;
15655;SDS011;7928;43.614;1.456;2023-04-03T00:48:01;4.90;;;2.70;;
15655;SDS011;7928;43.614;1.456;2023-04-03T00:50:32;3.13;;;2.00;;
15655;SDS011;7928;43.614;1.456;2023-04-03T00:53:02;3.67;;;2.20;;
15655;SDS011;7928;43.614;1.456;2023-04-03T00:55:31;3.33;;;2.33;;
15655;SDS011;7928;43.614;1.456;2023-04-03T00:57:58;4.10;;;2.10;;
15655;SDS011;7928;43.614;1.456;2023-04-03T01:00:27;4.77;;;2.53;;
15655;SDS011;7928;43.614;1.456;2023-04-03T01:02:54;5.50;;;2.30;;
15655;SDS011;7928;43.614;1.456;2023-04-03T01:05:23;4.73;;;2.70;;
15655;SDS011;7928;43.614;1.456;2023-04-03T01:07:50;4.00;;;2.33;;
15655;SDS011;7928;43.614;1.456;2023-04-03T01:10:18;3.53;;;2.47;;
15655;SDS011;7928;43.614;1.456;2023-04-03T01:12:47;5.07;;;2.70;;
15655;SDS011;7928;43.614;1.456;2023-04-03T01:15:16;5.77;;;2.73;;
15655;SDS011;7928;43.614;1.456;2023-04-03T01:17:45;6.73;;;2.77;;
15655;SDS011;7928;43.614;1.456;2023-04-03T01:23:35;3.83;;;2.27;;
15655;SDS011;7928;43.614;1.456;2023-04-03T01:26:19;3.57;;;2.00;;
15655;SDS011;7928;43.614;1.456;2023-04-03T01:28:46;3.80;;;2.00;;
15655;SDS011;7928;43.614;1.456;2023-04-03T01:31:15;4.43;;;2.50;;
15655;SDS011;7928;43.614;1.456;2023-04-03T01:33:50;6.13;;;2.40;;
15655;SDS011;7928;43.614;1.456;2023-04-03T01:36:18;5.00;;;2.57;;
15655;SDS011;7928;43.614;1.456;2023-04-03T01:38:47;3.53;;;2.43;;
15655;SDS011;7928;43.614;1.456;2023-04-03T01:41:15;4.37;;;2.47;;
15655;SDS011;7928;43.614;1.456;2023-04-03T01:43:43;5.73;;;2.60;;
15655;SDS011;7928;43.614;1.456;2023-04-03T01:46:10;3.97;;;2.50;;
15655;SDS011;7928;43.614;1.456;2023-04-03T01:48:37;3.67;;;2.57;;
15655;SDS011;7928;43.614;1.456;2023-04-03T01:51:06;4.90;;;2.90;;
15655;SDS011;7928;43.614;1.456;2023-04-03T01:53:33;4.47;;;2.57;;
15655;SDS011;7928;43.614;1.456;2023-04-03T01:56:00;3.37;;;2.37;;
15655;SDS011;7928;43.614;1.456;2023-04-03T01:58:27;4.57;;;2.60;;
15655;SDS011;7928;43.614;1.456;2023-04-03T02:00:53;3.53;;;2.40;;
15655;SDS011;7928;43.614;1.456;2023-04-03T02:03:21;3.93;;;2.60;;
15655;SDS011;7928;43.614;1.456;2023-04-03T02:05:49;4.50;;;3.03;;
15655;SDS011;7928;43.614;1.456;2023-04-03T02:08:17;8.23;;;3.03;;
15655;SDS011;7928;43.614;1.456;2023-04-03T02:10:46;4.87;;;2.50;;
15655;SDS011;7928;43.614;1.456;2023-04-03T02:13:13;4.17;;;2.50;;
15655;SDS011;7928;43.614;1.456;2023-04-03T02:15:40;3.97;;;2.57;;
15655;SDS011;7928;43.614;1.456;2023-04-03T02:18:07;3.77;;;2.70;;
15655;SDS011;7928;43.614;1.456;2023-04-03T02:20:35;4.63;;;2.47;;
15655;SDS011;7928;43.614;1.456;2023-04-03T02:23:02;4.90;;;2.83;;
15655;SDS011;7928;43.614;1.456;2023-04-03T02:25:32;4.03;;;3.10;;
15655;SDS011;7928;43.614;1.456;2023-04-03T02:27:59;4.00;;;2.87;;
15655;SDS011;7928;43.614;1.456;2023-04-03T02:30:26;6.00;;;2.67;;
15655;SDS011;7928;43.614;1.456;2023-04-03T02:32:53;3.70;;;2.60;;
15655;SDS011;7928;43.614;1.456;2023-04-03T02:35:20;4.03;;;2.70;;
15655;SDS011;7928;43.614;1.456;2023-04-03T02:37:48;3.37;;;2.43;;
15655;SDS011;7928;43.614;1.456;2023-04-03T02:40:15;5.63;;;2.70;;
15655;SDS011;7928;43.614;1.456;2023-04-03T02:42:43;4.83;;;2.47;;
15655;SDS011;7928;43.614;1.456;2023-04-03T02:45:10;5.37;;;2.80;;
15655;SDS011;7928;43.614;1.456;2023-04-03T02:47:37;4.47;;;2.87;;
15655;SDS011;7928;43.614;1.456;2023-04-03T02:50:04;3.40;;;2.80;;
15655;SDS011;7928;43.614;1.456;2023-04-03T02:52:31;5.77;;;2.90;;
15655;SDS011;7928;43.614;1.456;2023-04-03T02:54:58;4.43;;;2.47;;
15655;SDS011;7928;43.614;1.456;2023-04-03T02:57:25;4.67;;;2.30;;
15655;SDS011;7928;43.614;1.456;2023-04-03T02:59:54;3.70;;;2.40;;
15655;SDS011;7928;43.614;1.456;2023-04-03T03:02:20;4.83;;;2.70;;
15655;SDS011;7928;43.614;1.456;2023-04-03T03:04:47;4.37;;;2.87;;
15655;SDS011;7928;43.614;1.456;2023-04-03T03:07:14;4.00;;;2.73;;
15655;SDS011;7928;43.614;1.456;2023-04-03T03:09:41;3.40;;;2.50;;
15655;SDS011;7928;43.614;1.456;2023-04-03T03:12:08;6.40;;;3.00;;
15655;SDS011;7928;43.614;1.456;2023-04-03T03:14:35;3.83;;;2.60;;
15655;SDS011;7928;43.614;1.456;2023-04-03T03:17:04;3.57;;;2.93;;
15655;SDS011;7928;43.614;1.456;2023-04-03T03:19:31;3.20;;;2.23;;
15655;SDS011;7928;43.614;1.456;2023-04-03T03:21:57;5.17;;;3.33;;
15655;SDS011;7928;43.614;1.456;2023-04-03T03:24:25;4.10;;;2.60;;
15655;SDS011;7928;43.614;1.456;2023-04-03T03:26:52;5.10;;;3.00;;
15655;SDS011;7928;43.614;1.456;2023-04-03T03:29:19;4.10;;;2.67;;
15655;SDS011;7928;43.614;1.456;2023-04-03T03:31:46;3.33;;;2.50;;
15655;SDS011;7928;43.614;1.456;2023-04-03T03:34:14;3.93;;;2.50;;
15655;SDS011;7928;43.614;1.456;2023-04-03T03:36:41;3.93;;;2.77;;
15655;SDS011;7928;43.614;1.456;2023-04-03T03:39:08;4.20;;;2.87;;
15655;SDS011;7928;43.614;1.456;2023-04-03T03:41:36;5.23;;;2.97;;
15655;SDS011;7928;43.614;1.456;2023-04-03T03:44:03;3.70;;;2.80;;
15655;SDS011;7928;43.614;1.456;2023-04-03T03:46:30;5.73;;;3.30;;
15655;SDS011;7928;43.614;1.456;2023-04-03T03:48:57;5.00;;;2.67;;
15655;SDS011;7928;43.614;1.456;2023-04-03T03:51:25;4.50;;;3.10;;
15655;SDS011;7928;43.614;1.456;2023-04-03T03:53:52;4.63;;;2.47;;
15655;SDS011;7928;43.614;1.456;2023-04-03T03:56:19;2.90;;;2.60;;
15655;SDS011;7928;43.614;1.456;2023-04-03T03:58:46;4.97;;;2.57;;
15655;SDS011;7928;43.614;1.456;2023-04-03T04:01:14;3.53;;;2.90;;
15655;SDS011;7928;43.614;1.456;2023-04-03T04:03:41;4.83;;;3.00;;
15655;SDS011;7928;43.614;1.456;2023-04-03T04:06:08;4.13;;;2.87;;
15655;SDS011;7928;43.614;1.456;2023-04-03T04:08:37;3.50;;;2.80;;
15655;SDS011;7928;43.614;1.456;2023-04-03T04:11:04;4.60;;;2.90;;
15655;SDS011;7928;43.614;1.456;2023-04-03T04:13:31;3.53;;;3.23;;
15655;SDS011;7928;43.614;1.456;2023-04-03T04:15:58;3.13;;;2.83;;
15655;SDS011;7928;43.614;1.456;2023-04-03T04:18:25;3.57;;;2.53;;
15655;SDS011;7928;43.614;1.456;2023-04-03T04:20:52;6.07;;;3.00;;
15655;SDS011;7928;43.614;1.456;2023-04-03T04:23:19;5.17;;;3.20;;
15655;SDS011;7928;43.614;1.456;2023-04-03T04:25:48;3.57;;;3.20;;
15655;SDS011;7928;43.614;1.456;2023-04-03T04:28:15;4.70;;;3.20;;
15655;SDS011;7928;43.614;1.456;2023-04-03T04:30:42;5.77;;;2.83;;
15655;SDS011;7928;43.614;1.456;2023-04-03T04:33:09;3.10;;;2.37;;
15655;SDS011;7928;43.614;1.456;2023-04-03T04:35:36;5.33;;;2.73;;
15655;SDS011;7928;43.614;1.456;2023-04-03T04:38:03;5.47;;;3.17;;
15655;SDS011;7928;43.614;1.456;2023-04-03T04:40:30;3.87;;;3.13;;
15655;SDS011;7928;43.614;1.456;2023-04-03T04:42:59;4.60;;;3.00;;
15655;SDS011;7928;43.614;1.456;2023-04-03T04:45:26;2.87;;;2.53;;
15655;SDS011;7928;43.614;1.456;2023-04-03T04:47:54;4.93;;;3.30;;
15655;SDS011;7928;43.614;1.456;2023-04-03T04:50:21;4.33;;;2.93;;
15655;SDS011;7928;43.614;1.456;2023-04-03T04:52:48;5.83;;;3.13;;
15655;SDS011;7928;43.614;1.456;2023-04-03T04:55:15;3.63;;;2.80;;
15655;SDS011;7928;43.614;1.456;2023-04-03T04:57:42;5.17;;;2.93;;
15655;SDS011;7928;43.614;1.456;2023-04-03T05:00:11;4.43;;;3.00;;
15655;SDS011;7928;43.614;1.456;2023-04-03T05:02:39;4.40;;;2.87;;
15655;SDS011;7928;43.614;1.456;2023-04-03T05:05:07;4.53;;;3.10;;
15655;SDS011;7928;43.614;1.456;2023-04-03T05:07:35;3.43;;;3.13;;
15655;SDS011;7928;43.614;1.456;2023-04-03T05:10:02;6.80;;;3.00;;
15655;SDS011;7928;43.614;1.456;2023-04-03T05:12:29;6.13;;;3.73;;
15655;SDS011;7928;43.614;1.456;2023-04-03T05:14:56;4.23;;;3.27;;
15655;SDS011;7928;43.614;1.456;2023-04-03T05:17:25;4.13;;;3.47;;
15655;SDS011;7928;43.614;1.456;2023-04-03T05:19:52;5.63;;;3.40;;
15655;SDS011;7928;43.614;1.456;2023-04-03T05:22:19;5.20;;;3.80;;
15655;SDS011;7928;43.614;1.456;2023-04-03T05:24:46;5.03;;;3.70;;
15655;SDS011;7928;43.614;1.456;2023-04-03T05:27:13;5.87;;;3.40;;
15655;SDS011;7928;43.614;1.456;2023-04-03T05:29:40;4.83;;;3.30;;
15655;SDS011;7928;43.614;1.456;2023-04-03T05:32:08;5.17;;;3.60;;
15655;SDS011;7928;43.614;1.456;2023-04-03T05:34:37;6.43;;;4.13;;
15655;SDS011;7928;43.614;1.456;2023-04-03T05:37:04;6.70;;;4.13;;
15655;SDS011;7928;43.614;1.456;2023-04-03T05:39:31;5.47;;;3.50;;
15655;SDS011;7928;43.614;1.456;2023-04-03T05:41:59;5.63;;;3.63;;
15655;SDS011;7928;43.614;1.456;2023-04-03T05:44:26;4.20;;;3.70;;
15655;SDS011;7928;43.614;1.456;2023-04-03T05:46:53;4.83;;;3.97;;
15655;SDS011;7928;43.614;1.456;2023-04-03T05:49:20;4.97;;;4.03;;
15655;SDS011;7928;43.614;1.456;2023-04-03T05:51:48;5.27;;;3.50;;
15655;SDS011;7928;43.614;1.456;2023-04-03T05:54:17;4.37;;;3.77;;
15655;SDS011;7928;43.614;1.456;2023-04-03T05:56:48;5.40;;;3.63;;
15655;SDS011;7928;43.614;1.456;2023-04-03T05:59:15;5.27;;;3.90;;
15655;SDS011;7928;43.614;1.456;2023-04-03T06:01:42;4.20;;;3.80;;
15655;SDS011;7928;43.614;1.456;2023-04-03T06:04:09;4.80;;;3.70;;
15655;SDS011;7928;43.614;1.456;2023-04-03T06:06:44;5.37;;;3.93;;
15655;SDS011;7928;43.614;1.456;2023-04-03T06:09:14;5.37;;;3.27;;
15655;SDS011;7928;43.614;1.456;2023-04-03T06:11:42;4.80;;;4.10;;
15655;SDS011;7928;43.614;1.456;2023-04-03T06:14:09;6.10;;;4.17;;
15655;SDS011;7928;43.614;1.456;2023-04-03T06:16:36;7.03;;;3.57;;
15655;SDS011;7928;43.614;1.456;2023-04-03T06:19:04;7.53;;;3.70;;
15655;SDS011;7928;43.614;1.456;2023-04-03T06:21:31;4.53;;;3.50;;
15655;SDS011;7928;43.614;1.456;2023-04-03T06:24:00;4.20;;;3.33;;
15655;SDS011;7928;43.614;1.456;2023-04-03T06:26:29;6.60;;;3.70;;
15655;SDS011;7928;43.614;1.456;2023-04-03T06:28:57;5.67;;;4.00;;
15655;SDS011;7928;43.614;1.456;2023-04-03T06:31:24;5.77;;;3.57;;
15655;SDS011;7928;43.614;1.456;2023-04-03T06:33:51;6.00;;;3.40;;
15655;SDS011;7928;43.614;1.456;2023-04-03T06:36:18;3.87;;;3.40;;
15655;SDS011;7928;43.614;1.456;2023-04-03T06:38:46;5.53;;;3.20;;
15655;SDS011;7928;43.614;1.456;2023-04-03T06:41:14;5.97;;;3.87;;
15655;SDS011;7928;43.614;1.456;2023-04-03T06:43:42;4.47;;;3.60;;
15655;SDS011;7928;43.614;1.456;2023-04-03T06:46:12;7.13;;;4.07;;
15655;SDS011;7928;43.614;1.456;2023-04-03T06:48:41;5.00;;;3.60;;
15655;SDS011;7928;43.614;1.456;2023-04-03T06:51:13;5.40;;;3.47;;
15655;SDS011;7928;43.614;1.456;2023-04-03T06:53:45;5.17;;;3.57;;
15655;SDS011;7928;43.614;1.456;2023-04-03T06:56:12;3.90;;;3.20;;
15655;SDS011;7928;43.614;1.456;2023-04-03T06:58:39;8.33;;;4.23;;
15655;SDS011;7928;43.614;1.456;2023-04-03T07:01:08;9.00;;;3.87;;
15655;SDS011;7928;43.614;1.456;2023-04-03T07:03:36;3.77;;;3.20;;
15655;SDS011;7928;43.614;1.456;2023-04-03T07:06:03;5.63;;;3.40;;
15655;SDS011;7928;43.614;1.456;2023-04-03T07:08:32;8.57;;;4.00;;
15655;SDS011;7928;43.614;1.456;2023-04-03T07:10:59;9.37;;;3.87;;
15655;SDS011;7928;43.614;1.456;2023-04-03T07:13:27;4.73;;;3.10;;
15655;SDS011;7928;43.614;1.456;2023-04-03T07:15:54;5.33;;;3.73;;
15655;SDS011;7928;43.614;1.456;2023-04-03T07:18:22;7.40;;;3.47;;
15655;SDS011;7928;43.614;1.456;2023-04-03T07:20:50;7.50;;;3.53;;
15655;SDS011;7928;43.614;1.456;2023-04-03T07:23:17;5.80;;;3.00;;
15655;SDS011;7928;43.614;1.456;2023-04-03T07:25:46;4.73;;;3.30;;
15655;SDS011;7928;43.614;1.456;2023-04-03T07:28:14;6.37;;;3.80;;
15655;SDS011;7928;43.614;1.456;2023-04-03T07:30:42;13.70;;;4.47;;
15655;SDS011;7928;43.614;1.456;2023-04-03T07:33:10;8.47;;;4.13;;
15655;SDS011;7928;43.614;1.456;2023-04-03T07:35:39;3.57;;;2.90;;
15655;SDS011;7928;43.614;1.456;2023-04-03T07:38:07;6.40;;;3.27;;
15655;SDS011;7928;43.614;1.456;2023-04-03T07:40:34;4.27;;;3.30;;
15655;SDS011;7928;43.614;1.456;2023-04-03T07:43:02;4.47;;;3.03;;
15655;SDS011;7928;43.614;1.456;2023-04-03T07:45:29;4.80;;;3.37;;
15655;SDS011;7928;43.614;1.456;2023-04-03T07:47:56;5.57;;;3.40;;
15655;SDS011;7928;43.614;1.456;2023-04-03T07:50:23;4.37;;;3.40;;
15655;SDS011;7928;43.614;1.456;2023-04-03T07:52:51;4.90;;;3.13;;
15655;SDS011;7928;43.614;1.456;2023-04-03T07:55:21;7.97;;;3.43;;
15655;SDS011;7928;43.614;1.456;2023-04-03T07:57:48;15.40;;;3.83;;
15655;SDS011;7928;43.614;1.456;2023-04-03T08:00:15;6.70;;;3.23;;
15655;SDS011;7928;43.614;1.456;2023-04-03T08:02:44;6.33;;;3.27;;
15655;SDS011;7928;43.614;1.456;2023-04-03T08:05:15;9.20;;;3.87;;
15655;SDS011;7928;43.614;1.456;2023-04-03T08:07:42;8.17;;;3.10;;
15655;SDS011;7928;43.614;1.456;2023-04-03T08:10:11;4.77;;;3.80;;
15655;SDS011;7928;43.614;1.456;2023-04-03T08:12:38;8.73;;;4.77;;
15655;SDS011;7928;43.614;1.456;2023-04-03T08:15:05;6.20;;;3.10;;
15655;SDS011;7928;43.614;1.456;2023-04-03T08:17:33;3.67;;;3.10;;
15655;SDS011;7928;43.614;1.456;2023-04-03T08:20:00;4.63;;;2.60;;
15655;SDS011;7928;43.614;1.456;2023-04-03T08:22:27;8.50;;;3.67;;
15655;SDS011;7928;43.614;1.456;2023-04-03T08:24:55;9.73;;;3.90;;
15655;SDS011;7928;43.614;1.456;2023-04-03T08:27:24;5.20;;;3.23;;
15655;SDS011;7928;43.614;1.456;2023-04-03T08:29:51;5.37;;;2.63;;
15655;SDS011;7928;43.614;1.456;2023-04-03T08:32:18;6.50;;;3.13;;
15655;SDS011;7928;43.614;1.456;2023-04-03T08:34:45;9.23;;;4.07;;
15655;SDS011;7928;43.614;1.456;2023-04-03T08:37:12;5.30;;;3.23;;
15655;SDS011;7928;43.614;1.456;2023-04-03T08:39:41;8.73;;;3.30;;
15655;SDS011;7928;43.614;1.456;2023-04-03T08:42:12;4.17;;;2.47;;
15655;SDS011;7928;43.614;1.456;2023-04-03T08:44:47;4.50;;;3.00;;
15655;SDS011;7928;43.614;1.456;2023-04-03T08:47:21;4.27;;;2.90;;
15655;SDS011;7928;43.614;1.456;2023-04-03T08:49:51;4.90;;;2.33;;
15655;SDS011;7928;43.614;1.456;2023-04-03T08:52:22;6.10;;;2.90;;
15655;SDS011;7928;43.614;1.456;2023-04-03T08:55:00;4.07;;;2.80;;
15655;SDS011;7928;43.614;1.456;2023-04-03T08:57:30;7.70;;;2.70;;
15655;SDS011;7928;43.614;1.456;2023-04-03T09:00:01;2.97;;;1.97;;
15655;SDS011;7928;43.614;1.456;2023-04-03T09:02:33;4.93;;;2.70;;
15655;SDS011;7928;43.614;1.456;2023-04-03T09:05:09;3.20;;;2.37;;
15655;SDS011;7928;43.614;1.456;2023-04-03T09:07:39;5.83;;;2.70;;
15655;SDS011;7928;43.614;1.456;2023-04-03T09:10:10;4.50;;;2.10;;
15655;SDS011;7928;43.614;1.456;2023-04-03T09:12:41;5.67;;;2.40;;
15655;SDS011;7928;43.614;1.456;2023-04-03T09:15:19;4.33;;;1.93;;
15655;SDS011;7928;43.614;1.456;2023-04-03T09:17:50;3.60;;;2.10;;
15655;SDS011;7928;43.614;1.456;2023-04-03T09:20:26;3.10;;;1.60;;
15655;SDS011;7928;43.614;1.456;2023-04-03T09:23:04;6.80;;;2.43;;
15655;SDS011;7928;43.614;1.456;2023-04-03T09:25:40;3.50;;;1.90;;
15655;SDS011;7928;43.614;1.456;2023-04-03T09:28:08;3.17;;;2.07;;
15655;SDS011;7928;43.614;1.456;2023-04-03T09:30:37;5.13;;;1.80;;
15655;SDS011;7928;43.614;1.456;2023-04-03T09:33:04;5.37;;;2.13;;
15655;SDS011;7928;43.614;1.456;2023-04-03T09:35:32;4.30;;;1.90;;
15655;SDS011;7928;43.614;1.456;2023-04-03T09:38:01;4.00;;;1.80;;
15655;SDS011;7928;43.614;1.456;2023-04-03T09:40:41;5.07;;;2.27;;
15655;SDS011;7928;43.614;1.456;2023-04-03T09:43:29;4.27;;;2.00;;
15655;SDS011;7928;43.614;1.456;2023-04-03T09:46:15;2.97;;;1.80;;
15655;SDS011;7928;43.614;1.456;2023-04-03T09:48:49;3.60;;;1.80;;
15655;SDS011;7928;43.614;1.456;2023-04-03T09:51:18;4.10;;;1.83;;
15655;SDS011;7928;43.614;1.456;2023-04-03T09:53:45;7.67;;;2.47;;
15655;SDS011;7928;43.614;1.456;2023-04-03T09:56:19;3.40;;;1.63;;
15655;SDS011;7928;43.614;1.456;2023-04-03T09:58:49;4.97;;;1.90;;
15655;SDS011;7928;43.614;1.456;2023-04-03T10:01:23;3.67;;;1.70;;
15655;SDS011;7928;43.614;1.456;2023-04-03T10:04:03;5.47;;;2.37;;
15655;SDS011;7928;43.614;1.456;2023-04-03T10:06:33;3.67;;;1.50;;
15655;SDS011;7928;43.614;1.456;2023-04-03T10:09:05;6.13;;;2.07;;
15655;SDS011;7928;43.614;1.456;2023-04-03T10:11:43;4.97;;;1.60;;
15655;SDS011;7928;43.614;1.456;2023-04-03T10:14:26;2.67;;;1.40;;
15655;SDS011;7928;43.614;1.456;2023-04-03T10:16:56;3.90;;;1.90;;
15655;SDS011;7928;43.614;1.456;2023-04-03T10:19:33;3.37;;;1.73;;
15655;SDS011;7928;43.614;1.456;2023-04-03T10:22:03;5.73;;;2.40;;
15655;SDS011;7928;43.614;1.456;2023-04-03T10:24:40;4.87;;;1.60;;
15655;SDS011;7928;43.614;1.456;2023-04-03T10:27:15;3.20;;;1.67;;
15655;SDS011;7928;43.614;1.456;2023-04-03T10:29:51;2.57;;;1.27;;
15655;SDS011;7928;43.614;1.456;2023-04-03T10:32:30;4.00;;;1.40;;
15655;SDS011;7928;43.614;1.456;2023-04-03T10:35:14;2.23;;;1.10;;
15655;SDS011;7928;43.614;1.456;2023-04-03T10:37:51;4.40;;;1.60;;
15655;SDS011;7928;43.614;1.456;2023-04-03T10:40:29;3.60;;;1.73;;
15655;SDS011;7928;43.614;1.456;2023-04-03T10:43:02;3.27;;;1.23;;
15655;SDS011;7928;43.614;1.456;2023-04-03T10:45:43;3.83;;;1.53;;
15655;SDS011;7928;43.614;1.456;2023-04-03T10:48:24;1.90;;;1.20;;
15655;SDS011;7928;43.614;1.456;2023-04-03T10:51:08;4.00;;;1.47;;
15655;SDS011;7928;43.614;1.456;2023-04-03T10:53:47;1.67;;;1.30;;
15655;SDS011;7928;43.614;1.456;2023-04-03T10:56:24;2.83;;;1.33;;
15655;SDS011;7928;43.614;1.456;2023-04-03T10:58:56;2.10;;;1.07;;
15655;SDS011;7928;43.614;1.456;2023-04-03T11:01:29;2.90;;;1.17;;
15655;SDS011;7928;43.614;1.456;2023-04-03T11:04:01;2.73;;;1.10;;
15655;SDS011;7928;43.614;1.456;2023-04-03T11:06:34;1.47;;;0.87;;
15655;SDS011;7928;43.614;1.456;2023-04-03T11:09:07;1.73;;;0.80;;
15655;SDS011;7928;43.614;1.456;2023-04-03T11:11:43;2.37;;;1.00;;
15655;SDS011;7928;43.614;1.456;2023-04-03T11:14:13;3.27;;;1.20;;
15655;SDS011;7928;43.614;1.456;2023-04-03T11:16:48;2.23;;;0.87;;
15655;SDS011;7928;43.614;1.456;2023-04-03T11:19:26;2.00;;;0.70;;
15655;SDS011;7928;43.614;1.456;2023-04-03T11:22:01;3.43;;;0.87;;
15655;SDS011;7928;43.614;1.456;2023-04-03T11:24:32;2.90;;;1.20;;
15655;SDS011;7928;43.614;1.456;2023-04-03T11:27:02;1.30;;;0.67;;
15655;SDS011;7928;43.614;1.456;2023-04-03T11:29:35;3.27;;;0.90;;
15655;SDS011;7928;43.614;1.456;2023-04-03T11:32:08;3.03;;;0.80;;
15655;SDS011;7928;43.614;1.456;2023-04-03T11:34:44;2.40;;;1.10;;
15655;SDS011;7928;43.614;1.456;2023-04-03T11:37:16;2.23;;;0.77;;
15655;SDS011;7928;43.614;1.456;2023-04-03T11:39:51;2.07;;;0.80;;
15655;SDS011;7928;43.614;1.456;2023-04-03T11:42:25;6.80;;;1.93;;
15655;SDS011;7928;43.614;1.456;2023-04-03T11:45:15;2.80;;;1.03;;
15655;SDS011;7928;43.614;1.456;2023-04-03T11:47:54;4.33;;;1.40;;
15655;SDS011;7928;43.614;1.456;2023-04-03T11:50:44;1.57;;;0.90;;
15655;SDS011;7928;43.614;1.456;2023-04-03T11:56:31;2.40;;;0.90;;
15655;SDS011;7928;43.614;1.456;2023-04-03T11:59:16;2.93;;;1.13;;
15655;SDS011;7928;43.614;1.456;2023-04-03T12:01:51;4.47;;;1.30;;
15655;SDS011;7928;43.614;1.456;2023-04-03T12:04:19;3.20;;;1.10;;
15655;SDS011;7928;43.614;1.456;2023-04-03T12:09:56;2.63;;;1.10;;
15655;SDS011;7928;43.614;1.456;2023-04-03T12:12:29;4.13;;;1.47;;
15655;SDS011;7928;43.614;1.456;2023-04-03T12:15:21;4.07;;;1.07;;
15655;SDS011;7928;43.614;1.456;2023-04-03T12:21:17;1.93;;;0.90;;
15655;SDS011;7928;43.614;1.456;2023-04-03T12:24:01;3.87;;;1.10;;
15655;SDS011;7928;43.614;1.456;2023-04-03T12:26:32;2.67;;;1.27;;
15655;SDS011;7928;43.614;1.456;2023-04-03T12:29:10;1.43;;;0.90;;
15655;SDS011;7928;43.614;1.456;2023-04-03T12:31:53;2.13;;;0.90;;
15655;SDS011;7928;43.614;1.456;2023-04-03T12:34:34;2.87;;;1.10;;
15655;SDS011;7928;43.614;1.456;2023-04-03T12:37:21;2.90;;;0.83;;
15655;SDS011;7928;43.614;1.456;2023-04-03T12:40:01;2.20;;;0.90;;
15655;SDS011;7928;43.614;1.456;2023-04-03T12:42:55;4.90;;;1.23;;
15655;SDS011;7928;43.614;1.456;2023-04-03T12:45:38;2.17;;;1.00;;
15655;SDS011;7928;43.614;1.456;2023-04-03T12:48:10;1.97;;;1.10;;
15655;SDS011;7928;43.614;1.456;2023-04-03T12:50:41;5.63;;;2.07;;
15655;SDS011;7928;43.614;1.456;2023-04-03T12:53:12;3.57;;;1.17;;
15655;SDS011;7928;43.614;1.456;2023-04-03T12:55:42;2.33;;;1.20;;
15655;SDS011;7928;43.614;1.456;2023-04-03T12:58:14;3.00;;;1.50;;
15655;SDS011;7928;43.614;1.456;2023-04-03T13:00:45;2.07;;;1.37;;
15655;SDS011;7928;43.614;1.456;2023-04-03T13:03:20;2.57;;;0.97;;
15655;SDS011;7928;43.614;1.456;2023-04-03T13:05:51;1.83;;;1.33;;
15655;SDS011;7928;43.614;1.456;2023-04-03T13:08:20;2.70;;;1.10;;
15655;SDS011;7928;43.614;1.456;2023-04-03T13:10:51;2.60;;;1.20;;
15655;SDS011;7928;43.614;1.456;2023-04-03T13:13:22;3.43;;;1.20;;
15655;SDS011;7928;43.614;1.456;2023-04-03T13:15:51;3.40;;;1.47;;
15655;SDS011;7928;43.614;1.456;2023-04-03T13:18:23;2.63;;;1.23;;
15655;SDS011;7928;43.614;1.456;2023-04-03T13:20:52;1.70;;;0.90;;
15655;SDS011;7928;43.614;1.456;2023-04-03T13:23:22;3.03;;;1.10;;
15655;SDS011;7928;43.614;1.456;2023-04-03T13:25:49;2.50;;;1.27;;
15655;SDS011;7928;43.614;1.456;2023-04-03T13:28:18;2.73;;;1.00;;
15655;SDS011;7928;43.614;1.456;2023-04-03T13:30:59;3.43;;;1.20;;
15655;SDS011;7928;43.614;1.456;2023-04-03T13:33:31;5.43;;;1.30;;
15655;SDS011;7928;43.614;1.456;2023-04-03T13:36:03;1.83;;;0.93;;
15655;SDS011;7928;43.614;1.456;2023-04-03T13:38:33;1.87;;;1.00;;
15655;SDS011;7928;43.614;1.456;2023-04-03T13:41:02;4.57;;;1.40;;
15655;SDS011;7928;43.614;1.456;2023-04-03T13:43:31;2.77;;;1.50;;
15655;SDS011;7928;43.614;1.456;2023-04-03T13:46:03;2.70;;;1.20;;
15655;SDS011;7928;43.614;1.456;2023-04-03T13:48:46;2.13;;;1.10;;
15655;SDS011;7928;43.614;1.456;2023-04-03T13:51:20;2.50;;;1.20;;
15655;SDS011;7928;43.614;1.456;2023-04-03T13:53:50;5.23;;;1.30;;
15655;SDS011;7928;43.614;1.456;2023-04-03T13:56:21;3.77;;;1.27;;
15655;SDS011;7928;43.614;1.456;2023-04-03T13:58:53;2.77;;;1.33;;
15655;SDS011;7928;43.614;1.456;2023-04-03T14:01:23;3.00;;;1.23;;
15655;SDS011;7928;43.614;1.456;2023-04-03T14:03:52;1.93;;;1.17;;
15655;SDS011;7928;43.614;1.456;2023-04-03T14:06:21;5.80;;;1.90;;
15655;SDS011;7928;43.614;1.456;2023-04-03T14:08:48;6.83;;;3.63;;
15655;SDS011;7928;43.614;1.456;2023-04-03T14:11:17;4.83;;;2.17;;
15655;SDS011;7928;43.614;1.456;2023-04-03T14:13:47;4.10;;;2.20;;
15655;SDS011;7928;43.614;1.456;2023-04-03T14:16:17;4.03;;;1.63;;
15655;SDS011;7928;43.614;1.456;2023-04-03T14:18:47;3.67;;;1.43;;
15655;SDS011;7928;43.614;1.456;2023-04-03T14:21:16;4.10;;;1.83;;
15655;SDS011;7928;43.614;1.456;2023-04-03T14:23:44;4.87;;;2.37;;
15655;SDS011;7928;43.614;1.456;2023-04-03T14:26:12;5.53;;;2.20;;
15655;SDS011;7928;43.614;1.456;2023-04-03T14:28:41;3.57;;;1.67;;
15655;SDS011;7928;43.614;1.456;2023-04-03T14:31:10;3.37;;;1.47;;
15655;SDS011;7928;43.614;1.456;2023-04-03T14:33:38;3.57;;;1.30;;
15655;SDS011;7928;43.614;1.456;2023-04-03T14:36:11;7.10;;;1.23;;
15655;SDS011;7928;43.614;1.456;2023-04-03T14:38:40;2.07;;;1.33;;
15655;SDS011;7928;43.614;1.456;2023-04-03T14:41:10;2.53;;;1.40;;
15655;SDS011;7928;43.614;1.456;2023-04-03T14:43:38;4.13;;;1.13;;
15655;SDS011;7928;43.614;1.456;2023-04-03T14:46:08;3.80;;;1.60;;
15655;SDS011;7928;43.614;1.456;2023-04-03T14:48:39;2.20;;;1.20;;
15655;SDS011;7928;43.614;1.456;2023-04-03T14:51:06;2.13;;;1.40;;
15655;SDS011;7928;43.614;1.456;2023-04-03T14:53:34;3.17;;;1.33;;
15655;SDS011;7928;43.614;1.456;2023-04-03T14:56:02;3.07;;;1.27;;
15655;SDS011;7928;43.614;1.456;2023-04-03T14:58:36;3.10;;;1.00;;
15655;SDS011;7928;43.614;1.456;2023-04-03T15:01:03;4.67;;;2.43;;
15655;SDS011;7928;43.614;1.456;2023-04-03T15:03:30;2.07;;;1.30;;
15655;SDS011;7928;43.614;1.456;2023-04-03T15:05:57;2.13;;;1.50;;
15655;SDS011;7928;43.614;1.456;2023-04-03T15:08:25;3.37;;;0.93;;
15655;SDS011;7928;43.614;1.456;2023-04-03T15:10:56;3.33;;;1.30;;
15655;SDS011;7928;43.614;1.456;2023-04-03T15:13:24;3.93;;;1.20;;
15655;SDS011;7928;43.614;1.456;2023-04-03T15:15:51;6.00;;;1.50;;
15655;SDS011;7928;43.614;1.456;2023-04-03T15:18:19;2.80;;;1.30;;
15655;SDS011;7928;43.614;1.456;2023-04-03T15:20:49;2.63;;;1.13;;
15655;SDS011;7928;43.614;1.456;2023-04-03T15:23:16;3.30;;;1.20;;
15655;SDS011;7928;43.614;1.456;2023-04-03T15:25:43;4.30;;;1.30;;
15655;SDS011;7928;43.614;1.456;2023-04-03T15:28:17;2.90;;;1.17;;
15655;SDS011;7928;43.614;1.456;2023-04-03T15:30:48;1.97;;;0.90;;
15655;SDS011;7928;43.614;1.456;2023-04-03T15:33:15;2.80;;;1.20;;